Time;durP1;ratioP1;P1;durP2;ratioP2;P2;SDS_P1;SDS_P2;PMS_P1;PMS_P2;Temp;Humidity;BMP_temperature;BMP_pressure;BME280_temperature;BME280_humidity;BME280_pressure;Samples;Min_cycle;Max_cycle;Signal;HPM_P1;HPM_P2
2022/10/16 00:01:33;;;;;;;0.10;0.10;;;;;;;15.28;65.01;100962.66;5050669;28;20568;-82
2022/10/16 00:04:00;;;;;;;0.10;0.10;;;;;;;15.32;65.32;100949.09;5051063;28;20033;-82
2022/10/16 00:06:28;;;;;;;0.10;0.10;;;;;;;15.33;65.08;100950.84;5052059;28;20361;-82
2022/10/16 00:08:54;;;;;;;0.08;0.08;;;;;;;15.32;64.86;100958.91;5054957;28;20049;-82
2022/10/16 00:11:25;;;;;;;0.10;0.10;;;;;;;15.34;65.13;100952.59;5053271;28;20085;-83
2022/10/16 00:13:54;;;;;;;0.20;0.20;;;;;;;15.35;64.88;100950.78;5052866;28;20040;-83
2022/10/16 00:16:21;;;;;;;0.40;0.40;;;;;;;15.34;64.81;100952.59;5049399;28;20059;-83
2022/10/16 00:18:47;;;;;;;0.22;0.22;;;;;;;15.37;64.67;100955.13;5054711;28;20039;-83
2022/10/16 00:21:17;;;;;;;0.20;0.20;;;;;;;15.40;65.24;100963.97;5050140;28;20029;-83
2022/10/16 00:23:43;;;;;;;0.15;0.15;;;;;;;15.40;65.04;100958.63;5053047;28;20029;-81
2022/10/16 00:26:12;;;;;;;0.20;0.20;;;;;;;15.41;64.27;100958.56;5053962;28;20033;-83
2022/10/16 00:28:39;;;;;;;0.10;0.10;;;;;;;15.47;64.14;100966.34;5052077;28;20098;-82
2022/10/16 00:31:08;;;;;;;0.08;0.08;;;;;;;15.51;64.25;100967.97;5050382;28;20040;-83
2022/10/16 00:33:36;;;;;;;0.10;0.10;;;;;;;15.55;63.58;100954.47;5046742;28;20092;-82
2022/10/16 00:36:03;;;;;;;2.90;0.57;;;;;;;15.61;63.46;100975.63;5045129;28;20087;-83
2022/10/16 00:38:30;;;;;;;0.10;0.10;;;;;;;15.59;63.17;100982.81;5044288;28;20451;-83
2022/10/16 00:40:56;;;;;;;0.10;0.10;;;;;;;15.60;63.25;100976.53;5046396;28;20051;-83
2022/10/16 00:43:44;;;;;;;6.07;2.08;;;;;;;15.80;63.55;100959.72;5049205;28;20013;-82
2022/10/16 00:49:03;;;;;;;0.30;0.30;;;;;;;15.77;64.28;100971.41;5075618;28;20119;-79
2022/10/16 00:51:36;;;;;;;0.10;0.10;;;;;;;15.72;64.74;100957.34;5049895;28;20049;-79
2022/10/16 00:54:09;;;;;;;2.13;1.27;;;;;;;15.66;65.29;100949.59;5049809;28;20475;-79
2022/10/16 00:56:35;;;;;;;0.20;0.20;;;;;;;15.56;66.05;100957.09;5053966;28;20086;-79
2022/10/16 00:59:07;;;;;;;0.10;0.10;;;;;;;15.52;66.13;100967.00;5047025;28;20040;-79
2022/10/16 01:01:33;;;;;;;0.22;0.22;;;;;;;15.48;66.51;100977.91;5045245;28;20041;-79
2022/10/16 01:03:59;;;;;;;0.10;0.10;;;;;;;15.37;66.83;100967.63;5052682;28;20032;-79
2022/10/16 01:06:43;;;;;;;0.10;0.10;;;;;;;15.41;67.11;100953.22;5050128;28;20045;-79
2022/10/16 01:09:19;;;;;;;0.10;0.10;;;;;;;15.28;67.54;100944.81;5049931;28;20264;-79
2022/10/16 01:12:01;;;;;;;0.10;0.10;;;;;;;15.31;67.63;100935.81;5041726;28;20028;-77
2022/10/16 01:14:52;;;;;;;0.10;0.10;;;;;;;15.26;68.25;100901.28;5047274;28;20021;-78
2022/10/16 01:17:26;;;;;;;0.10;0.10;;;;;;;15.27;68.60;100920.84;5056077;28;20115;-78
2022/10/16 01:20:23;;;;;;;0.10;0.10;;;;;;;15.28;68.44;100925.28;5052111;28;20033;-79
2022/10/16 01:29:02;;;;;;;0.40;0.40;;;;;;;15.22;69.30;100946.88;5129560;27;20203;-78
2022/10/16 01:31:33;;;;;;;0.10;0.10;;;;;;;15.18;69.22;100952.28;5072877;28;20037;-78
2022/10/16 01:34:14;;;;;;;0.10;0.10;;;;;;;15.20;69.32;100954.91;5066240;28;20040;-78
2022/10/16 01:36:46;;;;;;;0.43;0.43;;;;;;;15.16;69.11;100956.81;5073744;28;20036;-78
2022/10/16 01:39:15;;;;;;;0.10;0.10;;;;;;;15.16;69.08;100955.94;5072134;28;20393;-78
2022/10/16 01:41:48;;;;;;;0.20;0.20;;;;;;;15.23;68.99;100959.25;5073898;28;20032;-77
2022/10/16 01:44:20;;;;;;;0.10;0.10;;;;;;;15.16;69.34;100963.97;5075206;28;20040;-78
2022/10/16 01:46:50;;;;;;;0.10;0.10;;;;;;;15.11;69.20;100965.94;5065749;28;20090;-78
2022/10/16 01:49:17;;;;;;;0.20;0.20;;;;;;;15.08;69.27;100980.25;5060597;28;20037;-77
2022/10/16 01:51:48;;;;;;;0.25;0.25;;;;;;;15.05;69.19;100961.69;5076804;28;20028;-77
2022/10/16 01:54:17;;;;;;;0.10;0.10;;;;;;;14.97;69.39;100959.31;5065397;28;20108;-78
2022/10/16 01:56:45;;;;;;;1.10;1.10;;;;;;;14.94;69.42;100971.88;5067846;28;20025;-78
2022/10/16 01:59:16;;;;;;;0.10;0.10;;;;;;;14.90;69.64;100975.59;5061060;28;20043;-78
2022/10/16 02:01:50;;;;;;;0.20;0.20;;;;;;;14.85;69.73;100981.97;5067530;28;20049;-78
2022/10/16 02:06:59;;;;;;;0.15;0.15;;;;;;;14.75;69.96;100985.00;5120942;27;20230;-78
2022/10/16 02:09:26;;;;;;;0.35;0.35;;;;;;;14.71;70.08;100978.91;5094342;28;20048;-78
2022/10/16 02:11:57;;;;;;;0.10;0.10;;;;;;;14.71;70.31;100985.09;5090771;28;20043;-78
2022/10/16 02:14:24;;;;;;;0.10;0.10;;;;;;;14.69;70.41;100988.75;5091829;28;20035;-78
2022/10/16 02:16:50;;;;;;;0.10;0.10;;;;;;;14.69;70.42;100991.41;5092476;28;20063;-77
2022/10/16 02:19:19;;;;;;;0.17;0.17;;;;;;;14.69;70.40;100986.97;5095357;28;20032;-78
2022/10/16 02:21:55;;;;;;;0.10;0.10;;;;;;;14.74;70.42;100991.25;5090956;28;20426;-78
2022/10/16 02:24:48;;;;;;;0.10;0.10;;;;;;;14.77;70.39;100988.50;5098620;28;20042;-79
2022/10/16 02:27:41;;;;;;;0.20;0.20;;;;;;;14.77;70.47;100988.50;5086045;28;20043;-78
2022/10/16 02:32:51;;;;;;;0.10;0.10;;;;;;;14.71;70.44;100987.78;5117252;27;20381;-79
2022/10/16 02:35:21;;;;;;;0.10;0.10;;;;;;;14.77;70.62;100992.03;5079975;27;20057;-79
2022/10/16 02:37:49;;;;;;;0.10;0.10;;;;;;;14.76;70.78;100992.09;5075393;28;21075;-78
2022/10/16 02:40:16;;;;;;;0.10;0.10;;;;;;;14.77;70.64;100991.16;5073123;28;20028;-78
2022/10/16 02:42:52;;;;;;;0.10;0.10;;;;;;;14.78;70.61;100998.22;5073159;28;20056;-78
2022/10/16 02:45:19;;;;;;;0.10;0.10;;;;;;;14.81;70.56;100996.31;5066426;28;20040;-78
2022/10/16 02:47:46;;;;;;;0.10;0.10;;;;;;;14.80;70.68;100997.25;5070862;28;20043;-78
2022/10/16 02:50:12;;;;;;;0.10;0.10;;;;;;;14.82;70.48;100992.72;5074846;28;20078;-79
2022/10/16 02:52:38;;;;;;;0.10;0.10;;;;;;;14.80;70.51;100991.91;5069819;28;20021;-79
2022/10/16 02:55:05;;;;;;;0.10;0.10;;;;;;;14.81;70.38;100984.78;5076609;28;20059;-79
2022/10/16 02:57:31;;;;;;;0.10;0.10;;;;;;;14.79;70.65;100982.19;5069268;28;20128;-79
2022/10/16 02:59:58;;;;;;;0.13;0.13;;;;;;;14.78;70.66;100979.56;5074874;28;20121;-79
2022/10/16 03:02:29;;;;;;;0.10;0.10;;;;;;;14.79;70.66;100959.97;5062131;28;20067;-79
2022/10/16 03:04:56;;;;;;;0.10;0.10;;;;;;;14.74;70.79;100968.13;5066622;28;20036;-79
2022/10/16 03:07:22;;;;;;;0.10;0.10;;;;;;;14.68;70.78;100968.38;5068961;28;20036;-79
2022/10/16 03:09:48;;;;;;;0.10;0.10;;;;;;;14.63;70.94;100980.94;5071015;28;20677;-79
2022/10/16 03:12:14;;;;;;;0.15;0.15;;;;;;;14.57;70.66;100988.22;5071631;28;20463;-80
2022/10/16 03:14:40;;;;;;;0.15;0.15;;;;;;;14.55;70.91;100990.09;5066873;28;20044;-79
2022/10/16 03:17:07;;;;;;;0.20;0.20;;;;;;;14.54;70.39;100988.34;5069068;28;20032;-79
2022/10/16 03:19:33;;;;;;;0.10;0.10;;;;;;;14.54;71.06;101003.44;5070203;28;20037;-79
2022/10/16 03:21:59;;;;;;;0.10;0.10;;;;;;;14.54;71.13;101004.34;5071429;28;20037;-79
2022/10/16 03:24:25;;;;;;;0.10;0.10;;;;;;;14.54;71.36;101009.66;5069391;28;20035;-79
2022/10/16 03:26:51;;;;;;;0.10;0.10;;;;;;;14.57;71.06;101006.88;5071275;28;20035;-79
2022/10/16 03:29:17;;;;;;;0.17;0.17;;;;;;;14.61;71.09;101020.13;5068748;28;20166;-79
2022/10/16 03:31:49;;;;;;;0.30;0.30;;;;;;;14.62;70.90;101021.88;5068992;28;20032;-79
2022/10/16 03:34:15;;;;;;;0.10;0.10;;;;;;;14.62;71.25;101021.88;5069547;28;20075;-79
2022/10/16 03:36:41;;;;;;;0.10;0.10;;;;;;;14.64;71.23;101020.91;5071099;28;20048;-79
2022/10/16 03:39:07;;;;;;;0.10;0.10;;;;;;;14.66;71.14;101019.06;5070315;28;20119;-78
2022/10/16 03:41:33;;;;;;;0.20;0.20;;;;;;;14.65;71.41;101017.31;5069823;28;20017;-79
2022/10/16 03:44:00;;;;;;;0.20;0.20;;;;;;;14.65;71.13;101021.78;5051513;28;20030;-79
2022/10/16 03:46:26;;;;;;;0.10;0.10;;;;;;;14.64;71.52;101018.22;5058548;28;20035;-78
2022/10/16 03:48:52;;;;;;;0.10;0.10;;;;;;;14.64;71.67;101025.34;5054807;28;20044;-78
2022/10/16 03:51:20;;;;;;;0.10;0.10;;;;;;;14.70;71.50;101030.50;5059067;28;20505;-78
2022/10/16 03:53:46;;;;;;;0.10;0.10;;;;;;;14.70;71.13;101035.84;5054657;28;20608;-78
2022/10/16 03:56:13;;;;;;;0.10;0.10;;;;;;;14.77;71.39;101034.72;5053362;28;20049;-78
2022/10/16 03:58:39;;;;;;;0.13;0.13;;;;;;;14.77;71.10;101037.38;5044445;28;20021;-78
2022/10/16 04:01:05;;;;;;;0.10;0.10;;;;;;;14.83;71.17;101041.63;5053257;28;20502;-79
2022/10/16 04:03:31;;;;;;;0.20;0.20;;;;;;;14.86;71.05;101038.84;5058417;28;20032;-79
2022/10/16 04:05:58;;;;;;;0.10;0.10;;;;;;;14.85;71.03;101039.78;5047638;28;20024;-78
2022/10/16 04:08:24;;;;;;;0.10;0.10;;;;;;;14.82;71.27;101048.75;5052236;28;20041;-78
2022/10/16 04:10:50;;;;;;;0.55;0.55;;;;;;;14.87;71.29;101048.59;5054700;28;20025;-78
2022/10/16 04:13:16;;;;;;;0.10;0.10;;;;;;;14.82;71.30;101048.75;5059215;28;20048;-78
2022/10/16 04:15:44;;;;;;;0.08;0.08;;;;;;;14.77;71.17;101058.72;5053046;28;20538;-78
2022/10/16 04:18:10;;;;;;;0.20;0.20;;;;;;;14.74;71.28;101056.13;5066886;28;20044;-78
2022/10/16 04:20:36;;;;;;;0.10;0.10;;;;;;;14.72;71.61;101066.00;5051463;28;20024;-78
2022/10/16 04:23:03;;;;;;;0.10;0.10;;;;;;;14.68;71.54;101067.03;5059445;28;20036;-78
2022/10/16 04:25:29;;;;;;;0.10;0.10;;;;;;;14.68;71.33;101070.56;5055709;28;20036;-78
2022/10/16 04:27:56;;;;;;;0.20;0.20;;;;;;;14.68;71.66;101072.38;5056737;28;20024;-78
2022/10/16 04:30:23;;;;;;;0.10;0.10;;;;;;;14.67;71.56;101067.97;5049809;28;20124;-79
2022/10/16 04:32:50;;;;;;;0.28;0.28;;;;;;;14.65;71.64;101072.47;5052866;28;20405;-79
2022/10/16 04:35:17;;;;;;;0.10;0.10;;;;;;;14.67;71.68;101078.63;5056884;28;20029;-79
2022/10/16 04:37:44;;;;;;;0.15;0.15;;;;;;;14.68;71.56;101075.03;5054405;28;20063;-78
2022/10/16 04:40:10;;;;;;;0.10;0.10;;;;;;;14.69;71.78;101084.75;5053108;28;20041;-79
2022/10/16 04:42:36;;;;;;;0.10;0.10;;;;;;;14.67;71.63;101090.16;5055707;28;20403;-79
2022/10/16 04:45:04;;;;;;;0.10;0.10;;;;;;;14.67;71.78;101094.63;5057218;28;20178;-78
2022/10/16 04:47:30;;;;;;;0.20;0.20;;;;;;;14.67;71.42;101094.63;5058922;28;20395;-79
2022/10/16 04:49:56;;;;;;;0.10;0.10;;;;;;;14.61;71.68;101100.13;5048686;28;20032;-79
2022/10/16 04:52:29;;;;;;;0.20;0.20;;;;;;;14.68;71.78;101101.72;5052879;28;20021;-79
2022/10/16 04:55:00;;;;;;;0.10;0.10;;;;;;;14.64;72.04;101106.25;5056229;28;20036;-79
2022/10/16 04:57:26;;;;;;;0.10;0.10;;;;;;;14.68;72.00;101105.22;5055052;28;20502;-79
2022/10/16 04:59:52;;;;;;;0.10;0.10;;;;;;;14.71;71.91;101110.44;5052691;28;20021;-79
2022/10/16 05:02:19;;;;;;;0.10;0.10;;;;;;;14.76;71.70;101120.97;5051523;28;20036;-79
2022/10/16 05:04:45;;;;;;;0.10;0.10;;;;;;;14.76;71.78;101131.66;5058210;28;20039;-79
2022/10/16 05:07:11;;;;;;;0.10;0.10;;;;;;;14.73;71.65;101129.09;5061124;28;20083;-79
2022/10/16 05:09:37;;;;;;;0.10;0.10;;;;;;;14.75;71.63;101132.56;5052967;28;20037;-79
2022/10/16 05:12:03;;;;;;;0.10;0.10;;;;;;;14.77;71.77;101138.72;5048379;28;20544;-79
2022/10/16 05:14:30;;;;;;;0.10;0.10;;;;;;;14.81;71.56;101135.03;5051718;28;20049;-79
2022/10/16 05:16:57;;;;;;;0.10;0.10;;;;;;;14.81;71.46;101135.03;5048592;28;20398;-79
2022/10/16 05:19:23;;;;;;;0.10;0.10;;;;;;;14.84;71.52;101136.72;5046697;28;20040;-79
2022/10/16 05:21:49;;;;;;;0.00;0.00;;;;;;;14.85;71.29;101147.38;5053454;28;20016;-80
2022/10/16 05:24:15;;;;;;;0.10;0.10;;;;;;;14.86;71.41;101143.75;5050028;28;20020;-79
2022/10/16 05:26:41;;;;;;;0.10;0.10;;;;;;;14.88;71.51;101146.38;5044298;28;20024;-79
2022/10/16 05:29:08;;;;;;;0.10;0.10;;;;;;;14.88;71.37;101147.25;5049573;28;20500;-79
2022/10/16 05:31:34;;;;;;;0.10;0.10;;;;;;;14.89;71.25;101153.44;5041707;28;20017;-80
2022/10/16 05:34:01;;;;;;;0.17;0.17;;;;;;;14.91;71.24;101156.94;5040790;28;20678;-79
2022/10/16 05:36:27;;;;;;;0.10;0.10;;;;;;;14.92;71.46;101161.38;5051298;28;20032;-79
2022/10/16 05:38:54;;;;;;;0.03;0.03;;;;;;;14.92;71.52;101157.84;5045172;28;20056;-79
2022/10/16 05:41:21;;;;;;;0.55;0.43;;;;;;;14.92;71.49;101164.03;5049354;28;20037;-79
2022/10/16 05:43:48;;;;;;;0.10;0.10;;;;;;;14.93;71.53;101170.22;5040378;28;20072;-80
2022/10/16 05:46:15;;;;;;;0.10;0.10;;;;;;;14.93;71.51;101170.22;5045891;28;20446;-80
2022/10/16 05:48:41;;;;;;;0.10;0.10;;;;;;;14.92;71.55;101176.50;5048524;28;20036;-79
2022/10/16 05:51:11;;;;;;;0.10;0.10;;;;;;;14.94;71.34;101188.88;5046168;28;20021;-79
2022/10/16 05:53:39;;;;;;;0.10;0.10;;;;;;;14.93;71.67;101191.56;5042876;28;20123;-79
2022/10/16 05:56:06;;;;;;;0.10;0.10;;;;;;;14.97;71.39;101190.56;5043453;28;20083;-80
2022/10/16 05:58:35;;;;;;;0.10;0.10;;;;;;;14.99;71.56;101191.38;5046965;28;20028;-79
2022/10/16 06:01:06;;;;;;;0.10;0.10;;;;;;;14.99;71.69;101186.91;5041808;28;20039;-78
2022/10/16 06:03:33;;;;;;;0.10;0.10;;;;;;;15.00;71.51;101193.13;5048404;28;20043;-79
2022/10/16 06:06:07;;;;;;;0.10;0.10;;;;;;;14.95;71.72;101184.41;5041552;28;20021;-80
2022/10/16 06:08:36;;;;;;;0.10;0.10;;;;;;;14.99;71.79;101192.25;5043604;28;20071;-80
2022/10/16 06:11:04;;;;;;;0.30;0.30;;;;;;;14.97;71.78;101204.75;5042367;28;20104;-80
2022/10/16 06:13:31;;;;;;;0.10;0.10;;;;;;;14.93;71.97;101195.13;5048381;28;20509;-80
2022/10/16 06:15:59;;;;;;;0.10;0.10;;;;;;;14.96;72.11;101205.69;5046938;28;20044;-79
2022/10/16 06:18:27;;;;;;;0.10;0.10;;;;;;;14.92;72.13;101206.72;5045460;28;20056;-79
2022/10/16 06:20:54;;;;;;;0.10;0.10;;;;;;;14.99;72.00;101202.03;5044257;28;20527;-80
2022/10/16 06:23:20;;;;;;;0.10;0.10;;;;;;;14.90;71.95;101197.03;5045942;28;20193;-80
2022/10/16 06:25:49;;;;;;;0.30;0.30;;;;;;;14.99;71.90;101202.03;5054846;28;20032;-79
2022/10/16 06:28:16;;;;;;;0.25;0.25;;;;;;;14.90;71.39;101213.03;5049509;28;20497;-80
2022/10/16 06:30:43;;;;;;;0.10;0.10;;;;;;;14.88;70.05;101221.94;5041398;28;20044;-79
2022/10/16 06:33:10;;;;;;;0.00;0.00;;;;;;;14.88;69.36;101221.09;5043089;28;20497;-80
2022/10/16 06:35:36;;;;;;;0.10;0.10;;;;;;;14.94;68.70;101220.00;5047594;28;20025;-79
2022/10/16 06:38:02;;;;;;;0.10;0.10;;;;;;;15.01;68.41;101222.41;5044190;28;20577;-80
2022/10/16 06:40:29;;;;;;;0.10;0.10;;;;;;;15.11;68.81;101228.31;5040388;28;20030;-79
2022/10/16 06:42:56;;;;;;;0.10;0.10;;;;;;;15.09;68.13;101214.19;5046047;28;20372;-78
2022/10/16 06:45:22;;;;;;;0.10;0.10;;;;;;;15.06;68.69;101224.94;5047567;28;20029;-78
2022/10/16 06:47:48;;;;;;;0.10;0.10;;;;;;;15.09;68.53;101224.84;5040738;28;20025;-79
2022/10/16 06:50:14;;;;;;;0.10;0.10;;;;;;;15.12;68.61;101229.22;5047066;28;20060;-79
2022/10/16 06:52:40;;;;;;;0.10;0.10;;;;;;;15.13;68.53;101230.97;5046957;28;20033;-79
2022/10/16 06:55:07;;;;;;;0.10;0.10;;;;;;;15.17;68.69;101240.59;5046271;28;20421;-79
2022/10/16 06:57:33;;;;;;;0.00;0.00;;;;;;;15.15;68.91;101251.34;5044196;28;20029;-79
2022/10/16 06:59:59;;;;;;;0.10;0.10;;;;;;;15.18;69.19;101243.22;5040199;28;20078;-78
2022/10/16 07:02:25;;;;;;;0.10;0.10;;;;;;;15.17;69.27;101252.16;5046191;28;20368;-78
2022/10/16 07:04:52;;;;;;;0.10;0.10;;;;;;;15.22;69.65;101262.69;5046030;28;20029;-78
2022/10/16 07:07:18;;;;;;;0.10;0.10;;;;;;;15.20;69.27;101273.41;5044753;28;20039;-79
2022/10/16 07:09:44;;;;;;;0.80;0.77;;;;;;;15.21;69.59;101271.59;5041034;28;20037;-79
2022/10/16 07:12:13;;;;;;;0.10;0.10;;;;;;;15.16;69.64;101286.91;5046346;28;20025;-79
2022/10/16 07:14:39;;;;;;;0.10;0.10;;;;;;;15.20;69.44;101285.88;5041394;28;20376;-78
2022/10/16 07:17:05;;;;;;;0.10;0.10;;;;;;;15.15;69.50;101291.38;5042309;28;20017;-78
2022/10/16 07:19:31;;;;;;;0.17;0.17;;;;;;;15.13;69.51;101300.38;5043266;28;21240;-78
2022/10/16 07:21:57;;;;;;;0.10;0.10;;;;;;;15.11;69.66;101304.88;5042408;28;20480;-79
2022/10/16 07:24:27;;;;;;;0.15;0.15;;;;;;;15.08;69.76;101312.94;5041113;28;20111;-78
2022/10/16 07:26:56;;;;;;;0.03;0.03;;;;;;;15.08;69.94;101312.94;5040249;28;20063;-79
2022/10/16 07:29:22;;;;;;;0.10;0.10;;;;;;;15.03;70.40;101321.97;5047836;28;20394;-79
2022/10/16 07:31:49;;;;;;;0.10;0.10;;;;;;;15.07;70.20;101327.25;5047816;28;20025;-80
2022/10/16 07:34:17;;;;;;;0.10;0.10;;;;;;;15.01;70.33;101328.28;5041070;28;20034;-79
2022/10/16 07:36:43;;;;;;;0.10;0.10;;;;;;;15.05;70.41;101335.28;5053193;28;20051;-80
2022/10/16 07:39:10;;;;;;;0.00;0.00;;;;;;;15.03;70.98;101343.31;5045258;28;20116;-80
2022/10/16 07:41:36;;;;;;;0.10;0.10;;;;;;;15.02;70.94;101354.91;5055407;28;20486;-80
2022/10/16 07:44:04;;;;;;;0.10;0.10;;;;;;;15.09;71.07;101352.06;5071519;28;20056;-79
2022/10/16 07:46:30;;;;;;;0.10;0.10;;;;;;;15.10;71.19;101356.50;5070999;28;20058;-80
2022/10/16 07:48:56;;;;;;;0.10;0.10;;;;;;;15.15;71.32;101357.22;5049446;28;20129;-78
2022/10/16 07:51:25;;;;;;;0.10;0.10;;;;;;;15.16;71.45;101354.50;5055942;28;20550;-80
2022/10/16 07:53:52;;;;;;;0.10;0.10;;;;;;;15.16;71.79;101359.81;5061776;28;20041;-78
2022/10/16 07:56:45;;;;;;;0.10;0.10;;;;;;;15.30;71.61;101363.88;5062573;28;20033;-81
2022/10/16 07:59:44;;;;;;;0.10;0.10;;;;;;;15.27;71.78;101366.66;5052957;28;20531;-80
2022/10/16 08:02:39;;;;;;;0.10;0.10;;;;;;;15.35;71.51;101369.94;5052374;28;20029;-80
2022/10/16 08:05:08;;;;;;;0.10;0.10;;;;;;;15.31;71.38;101378.97;5050381;28;20029;-81
2022/10/16 08:07:37;;;;;;;0.13;0.13;;;;;;;15.41;71.08;101383.09;5052091;28;21462;-80
2022/10/16 08:10:29;;;;;;;0.10;0.10;;;;;;;15.48;71.13;101386.47;5049388;28;20124;-80
2022/10/16 08:12:58;;;;;;;0.00;0.00;;;;;;;15.48;70.78;101386.47;5050149;28;20028;-80
2022/10/16 08:15:24;;;;;;;0.70;0.70;;;;;;;15.52;70.47;101393.44;5044606;28;20218;-80
2022/10/16 08:18:06;;;;;;;0.10;0.10;;;;;;;15.65;70.67;101393.91;5046806;28;20036;-79
2022/10/16 08:20:38;;;;;;;0.10;0.10;;;;;;;15.66;70.42;101403.69;5047878;28;20041;-79
2022/10/16 08:23:05;;;;;;;0.10;0.10;;;;;;;15.72;70.43;101406.16;5046811;28;20021;-79
2022/10/16 08:25:34;;;;;;;0.30;0.30;;;;;;;15.69;70.19;101411.59;5044711;28;20449;-79
2022/10/16 08:28:02;;;;;;;0.10;0.10;;;;;;;15.75;70.20;101405.16;5049582;28;20021;-79
2022/10/16 08:30:28;;;;;;;0.20;0.20;;;;;;;15.88;70.16;101417.25;5049649;28;20055;-79
2022/10/16 08:32:58;;;;;;;0.10;0.10;;;;;;;15.94;69.88;101417.03;5050206;28;20172;-80
2022/10/16 08:35:27;;;;;;;0.10;0.10;;;;;;;15.96;69.44;101417.88;5049679;28;20036;-79
2022/10/16 08:37:58;;;;;;;0.10;0.10;;;;;;;16.07;69.18;101428.19;5046595;28;20044;-80
2022/10/16 08:40:28;;;;;;;0.38;0.38;;;;;;;16.12;68.77;101426.22;5046997;28;20033;-80
2022/10/16 08:46:55;;;;;;;0.20;0.20;;;;;;;16.27;68.70;101434.66;5098032;27;20443;-79
2022/10/16 08:49:35;;;;;;;0.10;0.10;;;;;;;16.44;68.04;101439.44;5066646;28;20290;-79
2022/10/16 08:52:10;;;;;;;0.20;0.20;;;;;;;16.56;67.73;101435.44;5079461;28;20024;-80
2022/10/16 08:54:42;;;;;;;0.10;0.10;;;;;;;16.64;67.85;101444.94;5069904;28;20052;-80
2022/10/16 08:57:13;;;;;;;2.07;1.13;;;;;;;16.66;67.89;101455.59;5067360;28;20068;-79
2022/10/16 08:59:54;;;;;;;0.37;0.37;;;;;;;16.73;67.28;101451.75;5068361;28;20028;-80
2022/10/16 09:05:26;;;;;;;0.10;0.10;;;;;;;16.77;66.74;101466.78;5157184;27;90372;-79
2022/10/16 09:08:03;;;;;;;;;;;;;;;16.99;66.08;101468.72;5145211;27;20034;-81
2022/10/16 09:13:41;;;;;;;0.10;0.10;;;;;;;17.04;65.29;101472.09;5178728;27;20132;-81
2022/10/16 09:16:41;;;;;;;0.10;0.10;;;;;;;17.13;65.87;101463.72;5157113;27;20026;-82
2022/10/16 09:21:47;;;;;;;0.10;0.10;;;;;;;17.22;65.87;101477.69;5086988;27;20594;-81
2022/10/16 09:24:18;;;;;;;0.10;0.10;;;;;;;17.28;66.12;101482.81;5050345;28;20044;-82
2022/10/16 09:26:45;;;;;;;0.63;0.63;;;;;;;17.27;65.41;101475.69;5047257;28;20037;-81
2022/10/16 09:29:13;;;;;;;0.10;0.10;;;;;;;17.34;65.67;101487.06;5051298;28;20117;-80
2022/10/16 09:31:41;;;;;;;0.10;0.10;;;;;;;17.34;65.09;101485.25;5061766;28;20017;-81
2022/10/16 09:34:18;;;;;;;0.10;0.10;;;;;;;17.45;65.77;101483.03;5047069;28;20021;-81
2022/10/16 09:36:46;;;;;;;0.10;0.10;;;;;;;17.54;65.60;101483.63;5043855;28;20022;-81
2022/10/16 09:39:12;;;;;;;0.10;0.10;;;;;;;17.54;65.27;101486.28;5045754;28;20020;-80
2022/10/16 09:41:44;;;;;;;0.10;0.10;;;;;;;17.56;64.69;101481.75;5038730;28;20493;-82
2022/10/16 09:44:34;;;;;;;0.10;0.10;;;;;;;17.70;64.97;101483.88;5038456;28;20049;-81
2022/10/16 09:47:03;;;;;;;0.00;0.00;;;;;;;17.67;63.88;101487.56;5042365;28;20725;-81
2022/10/16 09:49:30;;;;;;;0.10;0.10;;;;;;;17.70;63.91;101495.47;5042404;28;20029;-82
2022/10/16 09:52:11;;;;;;;0.10;0.10;;;;;;;17.81;63.74;101497.72;5040222;28;20037;-82
2022/10/16 09:54:37;;;;;;;0.00;0.00;;;;;;;17.88;63.52;101498.34;5042882;28;20036;-81
2022/10/16 09:57:06;;;;;;;14.00;1.10;;;;;;;17.99;63.34;101496.13;5030780;28;20033;-84
2022/10/16 09:59:33;;;;;;;0.10;0.10;;;;;;;18.08;63.21;101493.09;5031203;28;20072;-82
2022/10/16 10:02:04;;;;;;;0.10;0.10;;;;;;;18.13;62.30;101500.06;5038456;28;20097;-82
2022/10/16 10:04:44;;;;;;;4.90;0.95;;;;;;;18.23;61.56;101493.38;5036948;28;20033;-83
2022/10/16 10:07:20;;;;;;;0.13;0.13;;;;;;;18.40;62.13;101501.56;5032904;28;20037;-83
2022/10/16 10:09:46;;;;;;;0.20;0.20;;;;;;;18.45;60.81;101492.47;5031807;28;20393;-81
2022/10/16 10:12:32;;;;;;;0.10;0.10;;;;;;;18.49;59.13;101497.66;5034331;28;20029;-79
2022/10/16 10:15:04;;;;;;;0.10;0.10;;;;;;;18.52;59.73;101504.69;5034686;28;21092;-81
2022/10/16 10:17:31;;;;;;;6.38;1.08;;;;;;;18.54;59.69;101500.13;5033433;28;20061;-81
2022/10/16 10:20:01;;;;;;;0.10;0.10;;;;;;;18.66;59.84;101502.28;5038412;28;20033;-80
2022/10/16 10:22:39;;;;;;;0.10;0.10;;;;;;;18.70;57.98;101508.38;5041600;28;20065;-81
2022/10/16 10:31:20;;;;;;;0.10;0.10;;;;;;;18.74;57.08;101524.31;5106871;27;20154;-84
2022/10/16 10:33:59;;;;;;;0.10;0.10;;;;;;;18.86;57.53;101527.38;5055026;28;20385;-85
2022/10/16 10:36:33;;;;;;;0.10;0.10;;;;;;;18.88;55.28;101534.44;5067140;28;20033;-84
2022/10/16 10:39:12;;;;;;;0.25;0.25;;;;;;;18.97;56.34;101522.44;5072515;28;20033;-84
2022/10/16 10:44:40;;;;;;;0.25;0.25;;;;;;;19.11;55.97;101540.63;5100672;27;20945;-84
2022/10/16 10:55:26;;;;;;;0.10;0.10;;;;;;;19.71;53.75;101537.00;5110030;27;20368;-83
2022/10/16 10:58:22;;;;;;;0.10;0.10;;;;;;;19.78;53.57;101545.66;5084106;28;20524;-83
2022/10/16 11:01:06;;;;;;;0.10;0.10;;;;;;;19.84;52.98;101545.41;5083755;28;20398;-83
2022/10/16 11:04:04;;;;;;;0.10;0.10;;;;;;;19.94;51.94;101546.69;5085112;28;20038;-83
2022/10/16 11:06:40;;;;;;;0.08;0.08;;;;;;;19.87;52.76;101550.59;5084394;28;20025;-82
2022/10/16 11:09:17;;;;;;;0.13;0.13;;;;;;;19.88;52.67;101563.13;5083539;28;20067;-83
2022/10/16 11:11:50;;;;;;;0.05;0.05;;;;;;;19.76;52.17;101561.84;5085980;28;20103;-83
2022/10/16 11:17:18;;;;;;;0.10;0.10;;;;;;;19.82;50.62;101579.50;5082335;27;20144;-84
2022/10/16 11:19:52;;;;;;;0.10;0.10;;;;;;;19.83;50.84;101566.00;5085738;28;20043;-83
2022/10/16 11:22:34;;;;;;;0.10;0.10;;;;;;;19.90;49.60;101572.00;5083133;28;20103;-83
2022/10/16 11:25:25;;;;;;;0.10;0.10;;;;;;;20.07;50.36;101573.00;5082435;28;20111;-82
2022/10/16 11:28:34;;;;;;;0.10;0.10;;;;;;;20.15;50.39;101565.41;5084381;28;20043;-83
2022/10/16 11:31:22;;;;;;;0.10;0.10;;;;;;;20.23;50.13;101565.91;5074455;28;20298;-83
2022/10/16 11:34:01;;;;;;;0.00;0.00;;;;;;;20.28;48.96;101577.31;5079997;28;20024;-83
2022/10/16 11:36:50;;;;;;;0.17;0.17;;;;;;;20.29;48.25;101579.06;5079947;28;20044;-83
2022/10/16 11:42:11;;;;;;;0.10;0.10;;;;;;;20.20;48.36;101575.00;5115413;27;20153;-82
2022/10/16 11:55:35;;;;;;;0.55;0.55;;;;;;;19.81;48.33;101577.75;5135334;27;96518;-79
2022/10/16 11:58:07;;;;;;;0.10;0.10;;;;;;;19.94;49.31;101587.03;5149395;27;20023;-81
2022/10/16 12:00:47;;;;;;;0.10;0.10;;;;;;;20.15;49.54;101592.31;5149272;27;20051;-81
2022/10/16 12:03:26;;;;;;;0.40;0.40;;;;;;;20.30;48.84;101596.06;5141754;27;20037;-81
2022/10/16 12:08:43;;;;;;;0.20;0.20;;;;;;;20.48;47.89;101595.16;5105614;27;20896;-79
2022/10/16 12:17:25;;;;;;;0.10;0.10;;;;;;;20.66;48.33;101601.47;5106691;27;20217;-83
2022/10/16 12:22:59;;;;;;;0.20;0.20;;;;;;;20.52;47.56;101598.56;5102773;27;20141;-79
2022/10/16 12:25:34;;;;;;;0.10;0.10;;;;;;;20.48;47.37;101613.13;5061056;28;20033;-78
2022/10/16 12:28:06;;;;;;;0.00;0.00;;;;;;;20.45;47.34;101599.81;5061793;28;20037;-78
2022/10/16 12:30:36;;;;;;;0.10;0.10;;;;;;;20.33;46.74;101612.06;5060797;28;20043;-78
2022/10/16 12:33:05;;;;;;;0.10;0.10;;;;;;;20.28;46.69;101611.44;5061051;28;20041;-78
2022/10/16 12:35:35;;;;;;;2.28;1.00;;;;;;;20.19;47.27;101612.75;5063922;28;20043;-78
2022/10/16 12:38:18;;;;;;;0.03;0.03;;;;;;;20.22;47.70;101609.03;5067098;28;20068;-78
2022/10/16 12:40:54;;;;;;;1.65;0.98;;;;;;;20.16;48.74;101603.00;5060344;28;20125;-78
2022/10/16 12:46:06;;;;;;;0.15;0.15;;;;;;;20.26;48.55;101605.25;5121237;27;20215;-78
2022/10/16 12:48:32;;;;;;;0.20;0.20;;;;;;;20.29;48.24;101611.34;5070017;28;20314;-78
2022/10/16 12:51:10;;;;;;;0.03;0.03;;;;;;;20.41;48.03;101603.63;5075543;28;20040;-78
2022/10/16 12:53:36;;;;;;;3.20;1.80;;;;;;;20.38;47.17;101598.41;5068912;28;20028;-78
2022/10/16 12:56:19;;;;;;;0.10;0.10;;;;;;;20.44;48.04;101608.88;5069425;28;20508;-79